sensor_id;sensor_type;location;lat;lon;timestamp;P1;durP1;ratioP1;P2;durP2;ratioP2
6223;SDS011;3145;42.726;23.342;2022-10-19T00:01:45;36.93;;;21.77;;
6223;SDS011;3145;42.726;23.342;2022-10-19T00:04:12;29.00;;;19.37;;
6223;SDS011;3145;42.726;23.342;2022-10-19T00:06:39;32.70;;;20.83;;
6223;SDS011;3145;42.726;23.342;2022-10-19T00:09:08;33.80;;;22.10;;
6223;SDS011;3145;42.726;23.342;2022-10-19T00:11:37;33.13;;;22.73;;
6223;SDS011;3145;42.726;23.342;2022-10-19T00:14:05;31.43;;;23.30;;
6223;SDS011;3145;42.726;23.342;2022-10-19T00:16:34;37.47;;;24.20;;
6223;SDS011;3145;42.726;23.342;2022-10-19T00:19:03;40.97;;;24.67;;
6223;SDS011;3145;42.726;23.342;2022-10-19T00:21:33;38.83;;;24.20;;
6223;SDS011;3145;42.726;23.342;2022-10-19T00:24:00;36.97;;;23.17;;
6223;SDS011;3145;42.726;23.342;2022-10-19T00:26:28;34.30;;;20.83;;
6223;SDS011;3145;42.726;23.342;2022-10-19T00:28:55;30.57;;;20.60;;
6223;SDS011;3145;42.726;23.342;2022-10-19T00:31:23;30.97;;;20.57;;
6223;SDS011;3145;42.726;23.342;2022-10-19T00:33:50;31.40;;;20.93;;
6223;SDS011;3145;42.726;23.342;2022-10-19T00:36:18;37.77;;;22.13;;
6223;SDS011;3145;42.726;23.342;2022-10-19T00:38:46;35.57;;;22.20;;
6223;SDS011;3145;42.726;23.342;2022-10-19T00:41:14;34.53;;;22.47;;
6223;SDS011;3145;42.726;23.342;2022-10-19T00:43:53;32.87;;;22.07;;
6223;SDS011;3145;42.726;23.342;2022-10-19T00:46:21;40.73;;;23.30;;
6223;SDS011;3145;42.726;23.342;2022-10-19T00:48:49;34.97;;;22.47;;
6223;SDS011;3145;42.726;23.342;2022-10-19T00:51:17;31.30;;;22.23;;
6223;SDS011;3145;42.726;23.342;2022-10-19T00:53:44;32.30;;;19.83;;
6223;SDS011;3145;42.726;23.342;2022-10-19T00:56:12;25.90;;;18.37;;
6223;SDS011;3145;42.726;23.342;2022-10-19T00:58:40;27.97;;;17.90;;
6223;SDS011;3145;42.726;23.342;2022-10-19T01:01:12;26.07;;;17.80;;
6223;SDS011;3145;42.726;23.342;2022-10-19T01:03:42;30.77;;;20.30;;
6223;SDS011;3145;42.726;23.342;2022-10-19T01:06:10;28.20;;;18.33;;
6223;SDS011;3145;42.726;23.342;2022-10-19T01:08:39;27.47;;;18.47;;
6223;SDS011;3145;42.726;23.342;2022-10-19T01:11:10;27.77;;;18.63;;
6223;SDS011;3145;42.726;23.342;2022-10-19T01:13:45;33.73;;;19.07;;
6223;SDS011;3145;42.726;23.342;2022-10-19T01:16:24;25.73;;;17.77;;
6223;SDS011;3145;42.726;23.342;2022-10-19T01:19:00;27.40;;;18.50;;
6223;SDS011;3145;42.726;23.342;2022-10-19T01:21:39;21.80;;;16.07;;
6223;SDS011;3145;42.726;23.342;2022-10-19T01:30:13;20.10;;;14.00;;
6223;SDS011;3145;42.726;23.342;2022-10-19T01:32:48;16.97;;;14.27;;
6223;SDS011;3145;42.726;23.342;2022-10-19T01:35:25;21.03;;;15.07;;
6223;SDS011;3145;42.726;23.342;2022-10-19T01:38:02;23.47;;;14.37;;
6223;SDS011;3145;42.726;23.342;2022-10-19T01:40:37;20.47;;;13.57;;
6223;SDS011;3145;42.726;23.342;2022-10-19T01:43:11;19.93;;;14.97;;
6223;SDS011;3145;42.726;23.342;2022-10-19T01:45:47;20.97;;;15.53;;
6223;SDS011;3145;42.726;23.342;2022-10-19T01:48:18;24.70;;;15.73;;
6223;SDS011;3145;42.726;23.342;2022-10-19T01:50:49;16.03;;;14.17;;
6223;SDS011;3145;42.726;23.342;2022-10-19T01:53:20;20.93;;;13.93;;
6223;SDS011;3145;42.726;23.342;2022-10-19T01:55:51;16.70;;;13.37;;
6223;SDS011;3145;42.726;23.342;2022-10-19T01:58:21;17.20;;;14.50;;
6223;SDS011;3145;42.726;23.342;2022-10-19T02:00:55;16.57;;;14.33;;
6223;SDS011;3145;42.726;23.342;2022-10-19T02:03:24;18.93;;;14.00;;
6223;SDS011;3145;42.726;23.342;2022-10-19T02:05:53;19.83;;;14.03;;
6223;SDS011;3145;42.726;23.342;2022-10-19T02:08:23;14.50;;;12.97;;
6223;SDS011;3145;42.726;23.342;2022-10-19T02:10:53;18.07;;;14.47;;
6223;SDS011;3145;42.726;23.342;2022-10-19T02:13:22;14.90;;;13.30;;
6223;SDS011;3145;42.726;23.342;2022-10-19T02:15:51;17.33;;;12.90;;
6223;SDS011;3145;42.726;23.342;2022-10-19T02:18:24;14.70;;;12.60;;
6223;SDS011;3145;42.726;23.342;2022-10-19T02:20:56;14.00;;;12.60;;
6223;SDS011;3145;42.726;23.342;2022-10-19T02:23:24;16.07;;;12.63;;
6223;SDS011;3145;42.726;23.342;2022-10-19T02:25:52;20.70;;;12.67;;
6223;SDS011;3145;42.726;23.342;2022-10-19T02:28:19;14.10;;;12.57;;
6223;SDS011;3145;42.726;23.342;2022-10-19T02:30:47;14.23;;;12.00;;
6223;SDS011;3145;42.726;23.342;2022-10-19T02:33:16;18.27;;;14.07;;
6223;SDS011;3145;42.726;23.342;2022-10-19T02:35:43;15.43;;;13.17;;
6223;SDS011;3145;42.726;23.342;2022-10-19T02:38:10;16.00;;;12.40;;
6223;SDS011;3145;42.726;23.342;2022-10-19T02:40:42;19.77;;;14.10;;
6223;SDS011;3145;42.726;23.342;2022-10-19T02:43:14;18.83;;;14.33;;
6223;SDS011;3145;42.726;23.342;2022-10-19T02:45:47;16.57;;;14.67;;
6223;SDS011;3145;42.726;23.342;2022-10-19T02:48:20;16.83;;;14.43;;
6223;SDS011;3145;42.726;23.342;2022-10-19T02:50:49;20.37;;;16.20;;
6223;SDS011;3145;42.726;23.342;2022-10-19T02:53:16;24.23;;;17.97;;
6223;SDS011;3145;42.726;23.342;2022-10-19T02:55:44;24.17;;;17.90;;
6223;SDS011;3145;42.726;23.342;2022-10-19T02:58:13;23.97;;;17.03;;
6223;SDS011;3145;42.726;23.342;2022-10-19T03:00:40;23.47;;;16.73;;
6223;SDS011;3145;42.726;23.342;2022-10-19T03:03:07;25.63;;;18.20;;
6223;SDS011;3145;42.726;23.342;2022-10-19T03:05:36;65.80;;;40.93;;
6223;SDS011;3145;42.726;23.342;2022-10-19T03:08:03;36.20;;;25.07;;
6223;SDS011;3145;42.726;23.342;2022-10-19T03:10:30;76.50;;;43.63;;
6223;SDS011;3145;42.726;23.342;2022-10-19T03:12:56;63.70;;;37.13;;
6223;SDS011;3145;42.726;23.342;2022-10-19T03:15:23;41.80;;;27.13;;
6223;SDS011;3145;42.726;23.342;2022-10-19T03:17:53;40.20;;;22.90;;
6223;SDS011;3145;42.726;23.342;2022-10-19T03:20:20;32.67;;;22.47;;
6223;SDS011;3145;42.726;23.342;2022-10-19T03:22:48;28.67;;;18.23;;
6223;SDS011;3145;42.726;23.342;2022-10-19T03:25:15;24.57;;;18.43;;
6223;SDS011;3145;42.726;23.342;2022-10-19T03:27:42;25.20;;;18.40;;
6223;SDS011;3145;42.726;23.342;2022-10-19T03:30:09;21.63;;;17.93;;
6223;SDS011;3145;42.726;23.342;2022-10-19T03:32:36;32.17;;;20.63;;
6223;SDS011;3145;42.726;23.342;2022-10-19T03:35:03;32.17;;;21.70;;
6223;SDS011;3145;42.726;23.342;2022-10-19T03:37:30;34.47;;;20.90;;
6223;SDS011;3145;42.726;23.342;2022-10-19T03:39:58;39.20;;;24.57;;
6223;SDS011;3145;42.726;23.342;2022-10-19T03:42:25;43.50;;;25.87;;
6223;SDS011;3145;42.726;23.342;2022-10-19T03:44:52;33.37;;;21.63;;
6223;SDS011;3145;42.726;23.342;2022-10-19T03:47:19;38.47;;;23.90;;
6223;SDS011;3145;42.726;23.342;2022-10-19T03:49:45;53.03;;;30.00;;
6223;SDS011;3145;42.726;23.342;2022-10-19T03:52:14;54.73;;;32.13;;
6223;SDS011;3145;42.726;23.342;2022-10-19T03:54:41;56.67;;;30.77;;
6223;SDS011;3145;42.726;23.342;2022-10-19T03:57:09;47.70;;;28.00;;
6223;SDS011;3145;42.726;23.342;2022-10-19T03:59:36;40.03;;;27.47;;
6223;SDS011;3145;42.726;23.342;2022-10-19T04:02:03;37.70;;;22.97;;
6223;SDS011;3145;42.726;23.342;2022-10-19T04:04:30;49.23;;;26.63;;
6223;SDS011;3145;42.726;23.342;2022-10-19T04:06:57;47.40;;;31.97;;
6223;SDS011;3145;42.726;23.342;2022-10-19T04:09:23;72.33;;;40.60;;
6223;SDS011;3145;42.726;23.342;2022-10-19T04:11:50;102.60;;;53.53;;
6223;SDS011;3145;42.726;23.342;2022-10-19T04:14:19;98.53;;;50.33;;
6223;SDS011;3145;42.726;23.342;2022-10-19T04:16:47;103.40;;;51.60;;
6223;SDS011;3145;42.726;23.342;2022-10-19T04:19:14;109.03;;;51.17;;
6223;SDS011;3145;42.726;23.342;2022-10-19T04:21:41;86.00;;;44.23;;
6223;SDS011;3145;42.726;23.342;2022-10-19T04:24:09;104.33;;;50.33;;
6223;SDS011;3145;42.726;23.342;2022-10-19T04:26:39;82.97;;;45.70;;
6223;SDS011;3145;42.726;23.342;2022-10-19T04:29:07;61.37;;;37.80;;
6223;SDS011;3145;42.726;23.342;2022-10-19T04:31:36;63.60;;;36.83;;
6223;SDS011;3145;42.726;23.342;2022-10-19T04:34:04;37.13;;;27.70;;
6223;SDS011;3145;42.726;23.342;2022-10-19T04:36:31;46.23;;;29.50;;
6223;SDS011;3145;42.726;23.342;2022-10-19T04:38:58;39.97;;;26.37;;
6223;SDS011;3145;42.726;23.342;2022-10-19T04:41:25;42.03;;;27.60;;
6223;SDS011;3145;42.726;23.342;2022-10-19T04:43:55;57.13;;;32.20;;
6223;SDS011;3145;42.726;23.342;2022-10-19T04:46:23;73.27;;;38.37;;
6223;SDS011;3145;42.726;23.342;2022-10-19T04:48:53;66.83;;;36.47;;
6223;SDS011;3145;42.726;23.342;2022-10-19T04:51:21;44.70;;;27.53;;
6223;SDS011;3145;42.726;23.342;2022-10-19T04:53:49;40.50;;;24.00;;
6223;SDS011;3145;42.726;23.342;2022-10-19T04:56:16;33.53;;;24.90;;
6223;SDS011;3145;42.726;23.342;2022-10-19T04:58:44;45.30;;;24.97;;
6223;SDS011;3145;42.726;23.342;2022-10-19T05:01:12;32.47;;;23.50;;
6223;SDS011;3145;42.726;23.342;2022-10-19T05:03:40;37.33;;;22.53;;
6223;SDS011;3145;42.726;23.342;2022-10-19T05:06:08;34.23;;;23.67;;
6223;SDS011;3145;42.726;23.342;2022-10-19T05:08:36;43.90;;;25.33;;
6223;SDS011;3145;42.726;23.342;2022-10-19T05:11:04;37.13;;;23.70;;
6223;SDS011;3145;42.726;23.342;2022-10-19T05:13:32;42.87;;;25.90;;
6223;SDS011;3145;42.726;23.342;2022-10-19T05:16:00;53.33;;;26.90;;
6223;SDS011;3145;42.726;23.342;2022-10-19T05:18:27;61.70;;;28.57;;
6223;SDS011;3145;42.726;23.342;2022-10-19T05:20:59;44.77;;;27.97;;
6223;SDS011;3145;42.726;23.342;2022-10-19T05:23:28;49.60;;;29.33;;
6223;SDS011;3145;42.726;23.342;2022-10-19T05:26:02;48.60;;;29.63;;
6223;SDS011;3145;42.726;23.342;2022-10-19T05:28:30;42.53;;;28.37;;
6223;SDS011;3145;42.726;23.342;2022-10-19T05:31:03;47.53;;;27.50;;
6223;SDS011;3145;42.726;23.342;2022-10-19T05:33:32;49.27;;;26.23;;
6223;SDS011;3145;42.726;23.342;2022-10-19T05:35:59;44.73;;;27.23;;
6223;SDS011;3145;42.726;23.342;2022-10-19T05:38:36;45.33;;;27.60;;
6223;SDS011;3145;42.726;23.342;2022-10-19T05:41:03;42.10;;;25.43;;
6223;SDS011;3145;42.726;23.342;2022-10-19T05:43:30;39.63;;;23.33;;
6223;SDS011;3145;42.726;23.342;2022-10-19T05:46:01;30.37;;;20.37;;
6223;SDS011;3145;42.726;23.342;2022-10-19T05:48:28;28.13;;;18.23;;
6223;SDS011;3145;42.726;23.342;2022-10-19T05:50:58;23.53;;;17.03;;
6223;SDS011;3145;42.726;23.342;2022-10-19T05:53:25;27.97;;;18.47;;
6223;SDS011;3145;42.726;23.342;2022-10-19T05:55:53;39.53;;;21.33;;
6223;SDS011;3145;42.726;23.342;2022-10-19T05:58:21;26.43;;;18.70;;
6223;SDS011;3145;42.726;23.342;2022-10-19T06:00:52;21.63;;;15.07;;
6223;SDS011;3145;42.726;23.342;2022-10-19T06:03:19;27.20;;;15.03;;
6223;SDS011;3145;42.726;23.342;2022-10-19T06:05:47;23.07;;;14.67;;
6223;SDS011;3145;42.726;23.342;2022-10-19T06:08:14;23.80;;;12.60;;
6223;SDS011;3145;42.726;23.342;2022-10-19T06:10:40;15.37;;;11.00;;
6223;SDS011;3145;42.726;23.342;2022-10-19T06:13:09;14.20;;;11.67;;
6223;SDS011;3145;42.726;23.342;2022-10-19T06:15:36;20.43;;;11.43;;
6223;SDS011;3145;42.726;23.342;2022-10-19T06:18:04;19.13;;;12.23;;
6223;SDS011;3145;42.726;23.342;2022-10-19T06:20:32;15.63;;;12.27;;
6223;SDS011;3145;42.726;23.342;2022-10-19T06:22:59;19.47;;;11.07;;
6223;SDS011;3145;42.726;23.342;2022-10-19T06:25:26;18.73;;;11.63;;
6223;SDS011;3145;42.726;23.342;2022-10-19T06:27:53;27.60;;;13.27;;
6223;SDS011;3145;42.726;23.342;2022-10-19T06:30:21;19.37;;;10.43;;
6223;SDS011;3145;42.726;23.342;2022-10-19T06:32:48;20.93;;;12.20;;
6223;SDS011;3145;42.726;23.342;2022-10-19T06:35:14;21.50;;;12.33;;
6223;SDS011;3145;42.726;23.342;2022-10-19T06:37:41;25.30;;;11.73;;
6223;SDS011;3145;42.726;23.342;2022-10-19T06:40:08;23.77;;;11.33;;
6223;SDS011;3145;42.726;23.342;2022-10-19T06:42:35;22.50;;;10.53;;
6223;SDS011;3145;42.726;23.342;2022-10-19T06:45:03;19.80;;;12.47;;
6223;SDS011;3145;42.726;23.342;2022-10-19T06:47:46;18.43;;;9.90;;
6223;SDS011;3145;42.726;23.342;2022-10-19T06:50:13;14.07;;;9.47;;
6223;SDS011;3145;42.726;23.342;2022-10-19T06:52:39;19.20;;;10.10;;
6223;SDS011;3145;42.726;23.342;2022-10-19T06:55:06;17.80;;;10.07;;
6223;SDS011;3145;42.726;23.342;2022-10-19T06:57:34;18.53;;;10.10;;
6223;SDS011;3145;42.726;23.342;2022-10-19T07:00:01;16.07;;;10.17;;
6223;SDS011;3145;42.726;23.342;2022-10-19T07:02:28;15.93;;;12.20;;
6223;SDS011;3145;42.726;23.342;2022-10-19T07:04:56;15.57;;;10.40;;
6223;SDS011;3145;42.726;23.342;2022-10-19T07:07:23;10.77;;;9.30;;
6223;SDS011;3145;42.726;23.342;2022-10-19T07:09:50;13.43;;;10.30;;
6223;SDS011;3145;42.726;23.342;2022-10-19T07:12:17;19.80;;;9.73;;
6223;SDS011;3145;42.726;23.342;2022-10-19T07:14:44;16.37;;;9.77;;
6223;SDS011;3145;42.726;23.342;2022-10-19T07:17:12;15.33;;;10.47;;
6223;SDS011;3145;42.726;23.342;2022-10-19T07:19:39;16.27;;;11.47;;
6223;SDS011;3145;42.726;23.342;2022-10-19T07:22:07;17.17;;;10.37;;
6223;SDS011;3145;42.726;23.342;2022-10-19T07:24:34;18.50;;;10.90;;
6223;SDS011;3145;42.726;23.342;2022-10-19T07:27:00;14.20;;;10.30;;
6223;SDS011;3145;42.726;23.342;2022-10-19T07:29:27;14.97;;;9.87;;
6223;SDS011;3145;42.726;23.342;2022-10-19T07:31:54;14.30;;;10.70;;
6223;SDS011;3145;42.726;23.342;2022-10-19T07:34:20;13.07;;;9.67;;
6223;SDS011;3145;42.726;23.342;2022-10-19T07:36:47;14.13;;;10.30;;
6223;SDS011;3145;42.726;23.342;2022-10-19T07:39:15;16.27;;;10.27;;
6223;SDS011;3145;42.726;23.342;2022-10-19T07:41:42;16.10;;;10.23;;
6223;SDS011;3145;42.726;23.342;2022-10-19T07:44:09;14.10;;;9.90;;
6223;SDS011;3145;42.726;23.342;2022-10-19T07:46:36;13.07;;;10.97;;
6223;SDS011;3145;42.726;23.342;2022-10-19T07:49:04;17.93;;;11.30;;
6223;SDS011;3145;42.726;23.342;2022-10-19T07:51:33;18.43;;;10.90;;
6223;SDS011;3145;42.726;23.342;2022-10-19T07:54:00;21.37;;;10.83;;
6223;SDS011;3145;42.726;23.342;2022-10-19T07:56:28;16.83;;;10.83;;
6223;SDS011;3145;42.726;23.342;2022-10-19T07:58:56;12.77;;;10.77;;
6223;SDS011;3145;42.726;23.342;2022-10-19T08:01:25;25.97;;;12.30;;
6223;SDS011;3145;42.726;23.342;2022-10-19T08:03:54;13.80;;;11.47;;
6223;SDS011;3145;42.726;23.342;2022-10-19T08:06:22;16.77;;;11.07;;
6223;SDS011;3145;42.726;23.342;2022-10-19T08:08:50;26.60;;;11.87;;
6223;SDS011;3145;42.726;23.342;2022-10-19T08:11:18;16.07;;;11.60;;
6223;SDS011;3145;42.726;23.342;2022-10-19T08:13:48;18.00;;;11.10;;
6223;SDS011;3145;42.726;23.342;2022-10-19T08:16:22;21.83;;;10.37;;
6223;SDS011;3145;42.726;23.342;2022-10-19T08:18:51;18.13;;;9.80;;
6223;SDS011;3145;42.726;23.342;2022-10-19T08:21:18;16.10;;;10.60;;
6223;SDS011;3145;42.726;23.342;2022-10-19T08:23:45;20.17;;;10.30;;
6223;SDS011;3145;42.726;23.342;2022-10-19T08:26:11;17.60;;;10.70;;
6223;SDS011;3145;42.726;23.342;2022-10-19T08:28:38;23.83;;;10.10;;
6223;SDS011;3145;42.726;23.342;2022-10-19T08:31:10;17.47;;;9.67;;
6223;SDS011;3145;42.726;23.342;2022-10-19T08:33:38;21.37;;;9.93;;
6223;SDS011;3145;42.726;23.342;2022-10-19T08:36:05;23.30;;;9.87;;
6223;SDS011;3145;42.726;23.342;2022-10-19T08:38:33;17.90;;;10.50;;
6223;SDS011;3145;42.726;23.342;2022-10-19T08:41:03;21.07;;;9.50;;
6223;SDS011;3145;42.726;23.342;2022-10-19T08:43:39;19.50;;;10.40;;
6223;SDS011;3145;42.726;23.342;2022-10-19T08:46:23;20.40;;;8.97;;
6223;SDS011;3145;42.726;23.342;2022-10-19T08:48:57;20.90;;;9.33;;
6223;SDS011;3145;42.726;23.342;2022-10-19T08:51:26;27.23;;;10.27;;
6223;SDS011;3145;42.726;23.342;2022-10-19T08:53:54;22.10;;;9.70;;
6223;SDS011;3145;42.726;23.342;2022-10-19T08:56:26;12.23;;;9.33;;
6223;SDS011;3145;42.726;23.342;2022-10-19T08:59:00;13.43;;;8.07;;
6223;SDS011;3145;42.726;23.342;2022-10-19T09:01:38;14.43;;;8.27;;
6223;SDS011;3145;42.726;23.342;2022-10-19T09:04:11;14.50;;;7.90;;
6223;SDS011;3145;42.726;23.342;2022-10-19T09:06:46;9.47;;;7.40;;
6223;SDS011;3145;42.726;23.342;2022-10-19T09:09:21;13.07;;;7.97;;
6223;SDS011;3145;42.726;23.342;2022-10-19T09:11:49;12.17;;;6.10;;
6223;SDS011;3145;42.726;23.342;2022-10-19T09:14:21;7.57;;;6.37;;
6223;SDS011;3145;42.726;23.342;2022-10-19T09:16:57;6.50;;;5.60;;
6223;SDS011;3145;42.726;23.342;2022-10-19T09:19:28;13.73;;;6.30;;
6223;SDS011;3145;42.726;23.342;2022-10-19T09:21:56;9.17;;;5.70;;
6223;SDS011;3145;42.726;23.342;2022-10-19T09:24:27;9.07;;;4.87;;
6223;SDS011;3145;42.726;23.342;2022-10-19T09:26:57;6.00;;;5.50;;
6223;SDS011;3145;42.726;23.342;2022-10-19T09:29:28;12.80;;;4.73;;
6223;SDS011;3145;42.726;23.342;2022-10-19T09:32:03;7.53;;;4.23;;
6223;SDS011;3145;42.726;23.342;2022-10-19T09:34:35;14.00;;;6.03;;
6223;SDS011;3145;42.726;23.342;2022-10-19T09:37:06;11.10;;;4.37;;
6223;SDS011;3145;42.726;23.342;2022-10-19T09:39:33;4.90;;;4.27;;
6223;SDS011;3145;42.726;23.342;2022-10-19T09:42:04;8.93;;;3.93;;
6223;SDS011;3145;42.726;23.342;2022-10-19T09:44:33;5.50;;;4.23;;
6223;SDS011;3145;42.726;23.342;2022-10-19T09:47:04;4.43;;;3.83;;
6223;SDS011;3145;42.726;23.342;2022-10-19T09:49:47;6.33;;;3.70;;
6223;SDS011;3145;42.726;23.342;2022-10-19T09:52:21;9.33;;;4.03;;
6223;SDS011;3145;42.726;23.342;2022-10-19T09:54:58;6.97;;;4.40;;
6223;SDS011;3145;42.726;23.342;2022-10-19T09:57:27;4.63;;;3.93;;
6223;SDS011;3145;42.726;23.342;2022-10-19T09:59:53;7.97;;;4.47;;
6223;SDS011;3145;42.726;23.342;2022-10-19T10:02:27;6.90;;;3.80;;
6223;SDS011;3145;42.726;23.342;2022-10-19T10:04:55;5.53;;;5.00;;
6223;SDS011;3145;42.726;23.342;2022-10-19T10:07:32;6.63;;;3.80;;
6223;SDS011;3145;42.726;23.342;2022-10-19T10:10:02;4.43;;;3.73;;
6223;SDS011;3145;42.726;23.342;2022-10-19T10:12:34;5.57;;;3.87;;
6223;SDS011;3145;42.726;23.342;2022-10-19T10:15:02;7.50;;;3.73;;
6223;SDS011;3145;42.726;23.342;2022-10-19T10:17:32;4.93;;;4.43;;
6223;SDS011;3145;42.726;23.342;2022-10-19T10:20:14;4.57;;;4.00;;
6223;SDS011;3145;42.726;23.342;2022-10-19T10:22:51;4.53;;;4.10;;
6223;SDS011;3145;42.726;23.342;2022-10-19T10:25:23;4.43;;;3.60;;
6223;SDS011;3145;42.726;23.342;2022-10-19T10:27:56;4.90;;;3.50;;
6223;SDS011;3145;42.726;23.342;2022-10-19T10:30:25;3.90;;;3.60;;
6223;SDS011;3145;42.726;23.342;2022-10-19T10:32:55;6.47;;;3.90;;
6223;SDS011;3145;42.726;23.342;2022-10-19T10:35:24;5.63;;;3.87;;
6223;SDS011;3145;42.726;23.342;2022-10-19T10:38:01;5.03;;;3.60;;
6223;SDS011;3145;42.726;23.342;2022-10-19T10:40:31;3.75;;;3.45;;
6223;SDS011;3145;42.726;23.342;2022-10-19T10:43:00;3.58;;;3.28;;
6223;SDS011;3145;42.726;23.342;2022-10-19T10:45:30;8.10;;;3.38;;
6223;SDS011;3145;42.726;23.342;2022-10-19T10:48:04;4.67;;;3.37;;
6223;SDS011;3145;42.726;23.342;2022-10-19T10:50:40;4.82;;;3.45;;
6223;SDS011;3145;42.726;23.342;2022-10-19T10:53:29;4.47;;;3.67;;
6223;SDS011;3145;42.726;23.342;2022-10-19T10:55:56;5.23;;;4.07;;
6223;SDS011;3145;42.726;23.342;2022-10-19T10:58:26;3.70;;;3.40;;
6223;SDS011;3145;42.726;23.342;2022-10-19T11:01:03;6.90;;;3.10;;
6223;SDS011;3145;42.726;23.342;2022-10-19T11:03:34;3.97;;;3.57;;
6223;SDS011;3145;42.726;23.342;2022-10-19T11:06:03;5.90;;;3.38;;
6223;SDS011;3145;42.726;23.342;2022-10-19T11:08:30;5.53;;;3.70;;
6223;SDS011;3145;42.726;23.342;2022-10-19T11:11:04;6.23;;;3.60;;
6223;SDS011;3145;42.726;23.342;2022-10-19T11:13:41;7.87;;;2.83;;
6223;SDS011;3145;42.726;23.342;2022-10-19T11:16:15;7.63;;;3.05;;
6223;SDS011;3145;42.726;23.342;2022-10-19T11:18:45;3.85;;;3.55;;
6223;SDS011;3145;42.726;23.342;2022-10-19T11:21:16;3.40;;;3.10;;
6223;SDS011;3145;42.726;23.342;2022-10-19T11:23:52;4.55;;;2.80;;
6223;SDS011;3145;42.726;23.342;2022-10-19T11:26:33;6.13;;;3.30;;
6223;SDS011;3145;42.726;23.342;2022-10-19T11:29:14;3.40;;;3.10;;
6223;SDS011;3145;42.726;23.342;2022-10-19T11:31:52;3.50;;;3.20;;
6223;SDS011;3145;42.726;23.342;2022-10-19T11:34:27;5.32;;;3.50;;
6223;SDS011;3145;42.726;23.342;2022-10-19T11:37:17;5.72;;;3.83;;
6223;SDS011;3145;42.726;23.342;2022-10-19T11:39:57;5.22;;;3.92;;
6223;SDS011;3145;42.726;23.342;2022-10-19T11:42:46;9.63;;;3.83;;
6223;SDS011;3145;42.726;23.342;2022-10-19T11:45:24;5.53;;;3.67;;
6223;SDS011;3145;42.726;23.342;2022-10-19T11:48:04;4.22;;;3.45;;
6223;SDS011;3145;42.726;23.342;2022-10-19T11:50:45;4.45;;;3.70;;
6223;SDS011;3145;42.726;23.342;2022-10-19T11:53:22;5.65;;;4.05;;
6223;SDS011;3145;42.726;23.342;2022-10-19T11:55:59;8.93;;;4.82;;
6223;SDS011;3145;42.726;23.342;2022-10-19T11:58:41;5.57;;;3.63;;
6223;SDS011;3145;42.726;23.342;2022-10-19T12:01:15;4.88;;;3.70;;
6223;SDS011;3145;42.726;23.342;2022-10-19T12:06:57;5.35;;;4.10;;
6223;SDS011;3145;42.726;23.342;2022-10-19T12:09:32;3.92;;;3.38;;
6223;SDS011;3145;42.726;23.342;2022-10-19T12:12:15;6.13;;;3.88;;
6223;SDS011;3145;42.726;23.342;2022-10-19T12:14:50;6.97;;;3.72;;
6223;SDS011;3145;42.726;23.342;2022-10-19T12:17:23;3.90;;;3.60;;
6223;SDS011;3145;42.726;23.342;2022-10-19T12:19:55;4.43;;;3.80;;
6223;SDS011;3145;42.726;23.342;2022-10-19T12:22:27;4.78;;;3.45;;
6223;SDS011;3145;42.726;23.342;2022-10-19T12:24:56;4.15;;;3.53;;
6223;SDS011;3145;42.726;23.342;2022-10-19T12:27:27;4.03;;;3.63;;
6223;SDS011;3145;42.726;23.342;2022-10-19T12:29:57;9.82;;;4.60;;
6223;SDS011;3145;42.726;23.342;2022-10-19T12:32:29;12.02;;;4.35;;
6223;SDS011;3145;42.726;23.342;2022-10-19T12:35:06;9.82;;;3.78;;
6223;SDS011;3145;42.726;23.342;2022-10-19T12:37:46;5.85;;;3.83;;
6223;SDS011;3145;42.726;23.342;2022-10-19T12:40:18;11.00;;;5.70;;
6223;SDS011;3145;42.726;23.342;2022-10-19T12:42:52;5.63;;;4.50;;
6223;SDS011;3145;42.726;23.342;2022-10-19T12:45:27;6.80;;;4.03;;
6223;SDS011;3145;42.726;23.342;2022-10-19T12:48:14;7.25;;;4.50;;
6223;SDS011;3145;42.726;23.342;2022-10-19T12:53:33;7.07;;;4.33;;
6223;SDS011;3145;42.726;23.342;2022-10-19T12:56:04;6.10;;;4.40;;
6223;SDS011;3145;42.726;23.342;2022-10-19T12:58:44;4.73;;;4.20;;
6223;SDS011;3145;42.726;23.342;2022-10-19T13:01:15;7.67;;;4.10;;
6223;SDS011;3145;42.726;23.342;2022-10-19T13:03:45;5.53;;;4.25;;
6223;SDS011;3145;42.726;23.342;2022-10-19T13:06:14;7.90;;;3.53;;
6223;SDS011;3145;42.726;23.342;2022-10-19T13:08:46;5.63;;;3.77;;
6223;SDS011;3145;42.726;23.342;2022-10-19T13:11:21;6.83;;;4.57;;
6223;SDS011;3145;42.726;23.342;2022-10-19T13:13:56;4.57;;;3.63;;
6223;SDS011;3145;42.726;23.342;2022-10-19T13:19:27;5.77;;;3.80;;
6223;SDS011;3145;42.726;23.342;2022-10-19T13:28:00;11.17;;;6.13;;
6223;SDS011;3145;42.726;23.342;2022-10-19T13:31:00;6.37;;;4.50;;
6223;SDS011;3145;42.726;23.342;2022-10-19T13:33:39;5.43;;;4.57;;
6223;SDS011;3145;42.726;23.342;2022-10-19T13:36:10;5.33;;;4.83;;
6223;SDS011;3145;42.726;23.342;2022-10-19T13:38:38;6.43;;;4.47;;
6223;SDS011;3145;42.726;23.342;2022-10-19T13:41:08;7.30;;;4.77;;
6223;SDS011;3145;42.726;23.342;2022-10-19T13:43:39;6.00;;;4.77;;
6223;SDS011;3145;42.726;23.342;2022-10-19T13:46:17;5.03;;;4.63;;
6223;SDS011;3145;42.726;23.342;2022-10-19T13:48:56;6.50;;;4.50;;
6223;SDS011;3145;42.726;23.342;2022-10-19T13:52:06;10.20;;;4.43;;
6223;SDS011;3145;42.726;23.342;2022-10-19T13:55:12;11.50;;;4.80;;
6223;SDS011;3145;42.726;23.342;2022-10-19T13:58:11;5.83;;;4.30;;
6223;SDS011;3145;42.726;23.342;2022-10-19T14:00:59;6.50;;;4.63;;
6223;SDS011;3145;42.726;23.342;2022-10-19T14:03:40;4.83;;;4.00;;
6223;SDS011;3145;42.726;23.342;2022-10-19T14:06:21;4.40;;;3.87;;
6223;SDS011;3145;42.726;23.342;2022-10-19T14:11:49;8.03;;;3.90;;
6223;SDS011;3145;42.726;23.342;2022-10-19T14:14:18;7.50;;;4.60;;
6223;SDS011;3145;42.726;23.342;2022-10-19T14:16:49;5.60;;;4.30;;
6223;SDS011;3145;42.726;23.342;2022-10-19T14:19:20;4.53;;;4.03;;
6223;SDS011;3145;42.726;23.342;2022-10-19T14:21:51;6.87;;;4.60;;
6223;SDS011;3145;42.726;23.342;2022-10-19T14:24:20;14.30;;;5.87;;
6223;SDS011;3145;42.726;23.342;2022-10-19T14:26:54;7.97;;;5.03;;
6223;SDS011;3145;42.726;23.342;2022-10-19T14:34:39;5.40;;;4.97;;
6223;SDS011;3145;42.726;23.342;2022-10-19T14:37:10;6.97;;;5.30;;
6223;SDS011;3145;42.726;23.342;2022-10-19T14:39:41;7.93;;;5.50;;
6223;SDS011;3145;42.726;23.342;2022-10-19T14:42:08;7.13;;;5.00;;
6223;SDS011;3145;42.726;23.342;2022-10-19T14:44:37;7.43;;;4.73;;
6223;SDS011;3145;42.726;23.342;2022-10-19T14:47:06;6.87;;;5.23;;
6223;SDS011;3145;42.726;23.342;2022-10-19T14:49:43;5.87;;;5.10;;
6223;SDS011;3145;42.726;23.342;2022-10-19T14:52:10;11.20;;;5.30;;
6223;SDS011;3145;42.726;23.342;2022-10-19T14:54:42;8.70;;;5.17;;
6223;SDS011;3145;42.726;23.342;2022-10-19T14:57:11;11.17;;;6.60;;
6223;SDS011;3145;42.726;23.342;2022-10-19T14:59:43;6.20;;;5.70;;
6223;SDS011;3145;42.726;23.342;2022-10-19T15:02:14;10.00;;;5.80;;
6223;SDS011;3145;42.726;23.342;2022-10-19T15:04:45;8.90;;;6.80;;
6223;SDS011;3145;42.726;23.342;2022-10-19T15:07:14;11.43;;;6.67;;
6223;SDS011;3145;42.726;23.342;2022-10-19T15:09:47;9.10;;;6.63;;
6223;SDS011;3145;42.726;23.342;2022-10-19T15:12:17;7.93;;;6.87;;
6223;SDS011;3145;42.726;23.342;2022-10-19T15:14:47;14.47;;;6.93;;
6223;SDS011;3145;42.726;23.342;2022-10-19T15:17:20;8.40;;;7.40;;
6223;SDS011;3145;42.726;23.342;2022-10-19T15:19:50;11.13;;;7.40;;
6223;SDS011;3145;42.726;23.342;2022-10-19T15:22:18;23.23;;;7.70;;
6223;SDS011;3145;42.726;23.342;2022-10-19T15:24:54;11.47;;;7.60;;
6223;SDS011;3145;42.726;23.342;2022-10-19T15:27:27;10.30;;;6.97;;
6223;SDS011;3145;42.726;23.342;2022-10-19T15:29:57;9.07;;;6.80;;
6223;SDS011;3145;42.726;23.342;2022-10-19T15:32:26;10.70;;;7.50;;
6223;SDS011;3145;42.726;23.342;2022-10-19T15:35:00;10.87;;;8.23;;
6223;SDS011;3145;42.726;23.342;2022-10-19T15:37:34;10.23;;;8.80;;